Keloa3 — FAC7577 — position and weather

sailwx.info

Track history (hours):
 
Tides and Currents Weather Stations Pressure Air Temp Water Temp Dewpoint Dewpoint Depression Visibility Wind Speed Wind Dir Waves Ship Positions

Keloa3

Last reported at 2017-Aug-24 14:48 UTC. Time now 2017-Nov-22 22:13 UTC.
Position N 47°34' W 002°49'.
Warning: this ship's position is months out of date.

Length 12 m.

Type: Sailing vessel. MMSI: 227343220.

Date/timePositionNaut miles runAvg speedWind from/ knotsBaromVisibWave heightAir tempDewpointWater temp
2017-Aug-24 14:48N 47°34' W 002°49'1 2.8
2017-Aug-24 14:30N 47°33' W 002°50'3 5.5
2017-Aug-24 14:00N 47°34' W 002°54'0 0.0
2017-Aug-24 13:30N 47°34' W 002°54'2 3.4
2017-Aug-24 13:00N 47°32' W 002°55'2 4.0
2017-Aug-24 12:30N 47°30' W 002°57'3 6.0
2017-Aug-24 12:00N 47°28' W 002°60'3 5.6
2017-Aug-24 11:30N 47°27' W 003°03'2 4.5
2017-Aug-24 11:00N 47°26' W 003°06'2 3.9
2017-Aug-24 10:30N 47°25' W 003°09'2 3.8
2017-Aug-24 10:00N 47°24' W 003°11'1 1.8
2017-Aug-24 09:30N 47°24' W 003°12'1 1.7
2017-Aug-24 09:00N 47°23' W 003°13'0 0.0
2017-Aug-22 12:36N 47°23' W 003°13'0 0.5
2017-Aug-22 12:30N 47°23' W 003°13'2 4.3
2017-Aug-22 12:00N 47°24' W 003°10'2 4.6
2017-Aug-22 11:28N 47°25' W 003°07'1 1.8
2017-Aug-22 11:00N 47°24' W 003°06'1 2.8
2017-Aug-22 10:28N 47°23' W 003°04'1 2.0
2017-Aug-22 09:56N 47°23' W 003°02'1 2.7
2017-Aug-22 09:30N 47°23' W 003°01'6 0.1
2017-Aug-20 14:48N 47°22' W 002°53'2 5.0
2017-Aug-20 14:30N 47°23' W 002°54'2 0.1
2017-Aug-19 18:05N 47°24' W 002°56'0 5.7
2017-Aug-19 18:00N 47°25' W 002°56'3 5.8
2017-Aug-19 17:31N 47°28' W 002°55'3 5.0
2017-Aug-19 17:00N 47°30' W 002°55'3 5.4
2017-Aug-19 16:30N 47°33' W 002°55'2 4.5
2017-Aug-19 15:59N 47°34' W 002°52'2 3.6
2017-Aug-19 15:30N 47°33' W 002°50'0 0.0
2017-Aug-18 18:28N 47°34' W 002°49'0 0.3
2017-Aug-18 18:00N 47°33' W 002°50'2 4.3
2017-Aug-18 17:30N 47°34' W 002°53'1 2.4
2017-Aug-18 17:00N 47°34' W 002°54'3 5.0
2017-Aug-18 16:30N 47°33' W 002°51'  
Track history (hours):
 
Tides and Currents Weather Stations Pressure Air Temp Water Temp Dewpoint Dewpoint Depression Visibility Wind Speed Wind Dir Waves Ship Positions

Keloa3

Last reported at 2017-Aug-24 14:48 UTC. Time now 2017-Nov-22 22:13 UTC.
Position N 47°34' W 002°49'.
Warning: this ship's position is months out of date.

Length 12 m.

Type: Sailing vessel. MMSI: 227343220.

Date/timePositionNaut miles runAvg speedWind from/ knotsBaromVisibWave heightAir tempDewpointWater temp
2017-Aug-24 14:48N 47°34' W 002°49'1 2.8
2017-Aug-24 14:30N 47°33' W 002°50'3 5.5
2017-Aug-24 14:00N 47°34' W 002°54'0 0.0
2017-Aug-24 13:30N 47°34' W 002°54'2 3.4
2017-Aug-24 13:00N 47°32' W 002°55'2 4.0
2017-Aug-24 12:30N 47°30' W 002°57'3 6.0
2017-Aug-24 12:00N 47°28' W 002°60'3 5.6
2017-Aug-24 11:30N 47°27' W 003°03'2 4.5
2017-Aug-24 11:00N 47°26' W 003°06'2 3.9
2017-Aug-24 10:30N 47°25' W 003°09'2 3.8
2017-Aug-24 10:00N 47°24' W 003°11'1 1.8
2017-Aug-24 09:30N 47°24' W 003°12'1 1.7
2017-Aug-24 09:00N 47°23' W 003°13'0 0.0
2017-Aug-22 12:36N 47°23' W 003°13'0 0.5
2017-Aug-22 12:30N 47°23' W 003°13'2 4.3
2017-Aug-22 12:00N 47°24' W 003°10'2 4.6
2017-Aug-22 11:28N 47°25' W 003°07'1 1.8
2017-Aug-22 11:00N 47°24' W 003°06'1 2.8
2017-Aug-22 10:28N 47°23' W 003°04'1 2.0
2017-Aug-22 09:56N 47°23' W 003°02'1 2.7
2017-Aug-22 09:30N 47°23' W 003°01'6 0.1
2017-Aug-20 14:48N 47°22' W 002°53'2 5.0
2017-Aug-20 14:30N 47°23' W 002°54'2 0.1
2017-Aug-19 18:05N 47°24' W 002°56'0 5.7
2017-Aug-19 18:00N 47°25' W 002°56'3 5.8
2017-Aug-19 17:31N 47°28' W 002°55'3 5.0
2017-Aug-19 17:00N 47°30' W 002°55'3 5.4
2017-Aug-19 16:30N 47°33' W 002°55'2 4.5
2017-Aug-19 15:59N 47°34' W 002°52'2 3.6
2017-Aug-19 15:30N 47°33' W 002°50'0 0.0
2017-Aug-18 18:28N 47°34' W 002°49'0 0.3
2017-Aug-18 18:00N 47°33' W 002°50'2 4.3
2017-Aug-18 17:30N 47°34' W 002°53'1 2.4
2017-Aug-18 17:00N 47°34' W 002°54'3 5.0
2017-Aug-18 16:30N 47°33' W 002°51'  

Dump ship's entire track history